createdAt,value
2022-10-21T00:00:58.961Z,78.20
2022-10-21T00:03:27.700Z,85.20
2022-10-21T00:05:55.337Z,85.68
2022-10-21T00:08:23.507Z,78.82
2022-10-21T00:10:57.942Z,91.60
2022-10-21T00:13:27.868Z,78.40
2022-10-21T00:16:18.272Z,76.22
2022-10-21T00:18:47.749Z,81.00
2022-10-21T00:21:21.193Z,81.30
2022-10-21T00:23:50.035Z,82.30
2022-10-21T00:26:18.872Z,76.07
2022-10-21T00:28:46.073Z,74.05
2022-10-21T00:31:16.437Z,77.35
2022-10-21T00:33:43.714Z,71.82
2022-10-21T00:36:15.498Z,77.45
2022-10-21T00:38:49.545Z,70.07
2022-10-21T00:41:20.172Z,75.43
2022-10-21T00:44:01.985Z,74.60
2022-10-21T00:47:12.065Z,66.15
2022-10-21T00:49:58.542Z,69.70
2022-10-21T00:52:26.526Z,70.07
2022-10-21T00:54:58.461Z,75.53
2022-10-21T00:57:27.336Z,66.18
2022-10-21T01:00:00.339Z,73.35
2022-10-21T01:02:29.277Z,73.68
2022-10-21T01:05:01.553Z,70.20
2022-10-21T01:07:29.012Z,64.75
2022-10-21T01:09:56.105Z,69.78
2022-10-21T01:13:39.003Z,63.53
2022-10-21T01:16:33.385Z,70.45
2022-10-21T01:19:34.837Z,63.95
2022-10-21T01:22:50.271Z,57.63
2022-10-21T01:26:03.575Z,73.00
2022-10-21T01:28:48.536Z,59.88
2022-10-21T01:31:38.175Z,65.63
2022-10-21T01:34:41.468Z,58.88
2022-10-21T01:38:13.914Z,60.75
2022-10-21T01:41:01.546Z,60.33
2022-10-21T01:43:55.523Z,53.10
2022-10-21T01:46:49.100Z,60.78
2022-10-21T01:49:42.694Z,59.00
2022-10-21T01:52:12.443Z,58.35
2022-10-21T01:54:45.976Z,57.45
2022-10-21T01:57:18.747Z,53.90
2022-10-21T01:59:46.554Z,59.70
2022-10-21T02:02:15.965Z,58.85
2022-10-21T02:04:44.741Z,56.97
2022-10-21T02:07:11.960Z,58.40
2022-10-21T02:09:39.194Z,53.03
2022-10-21T02:12:07.729Z,59.35
2022-10-21T02:14:46.455Z,55.47
2022-10-21T02:17:21.767Z,51.50
2022-10-21T02:19:49.078Z,55.03
2022-10-21T02:22:21.755Z,55.28
2022-10-21T02:25:30.119Z,49.22
2022-10-21T02:27:57.589Z,48.50
2022-10-21T02:30:25.163Z,50.78
2022-10-21T02:33:11.372Z,49.97
2022-10-21T02:35:54.813Z,49.85
2022-10-21T02:38:44.141Z,48.08
2022-10-21T02:41:16.549Z,53.00
2022-10-21T02:44:01.739Z,50.83
2022-10-21T02:46:42.902Z,48.60
2022-10-21T02:49:10.538Z,46.97
2022-10-21T02:51:37.850Z,46.28
2022-10-21T02:54:05.159Z,48.83
2022-10-21T02:56:32.377Z,49.78
2022-10-21T02:58:59.496Z,50.42
2022-10-21T03:01:27.146Z,50.05
2022-10-21T03:03:54.601Z,50.92
2022-10-21T03:06:21.731Z,44.78
2022-10-21T03:08:48.866Z,46.47
2022-10-21T03:11:16.068Z,51.90
2022-10-21T03:13:43.217Z,48.47
2022-10-21T03:16:10.358Z,56.10
2022-10-21T03:18:37.611Z,50.97
2022-10-21T03:21:05.025Z,52.92
2022-10-21T03:23:32.204Z,50.97
2022-10-21T03:25:59.357Z,52.70
2022-10-21T03:28:26.613Z,49.60
2022-10-21T03:30:55.220Z,49.60
2022-10-21T03:33:22.412Z,49.45
2022-10-21T03:35:49.761Z,52.45
2022-10-21T03:38:16.958Z,54.60
2022-10-21T03:40:44.138Z,53.17
2022-10-21T03:43:11.416Z,48.80
2022-10-21T03:45:38.626Z,49.45
2022-10-21T03:48:05.962Z,48.15
2022-10-21T03:50:33.241Z,51.85
2022-10-21T03:53:01.182Z,56.25
2022-10-21T03:55:31.485Z,51.13
2022-10-21T03:57:58.621Z,50.63
2022-10-21T04:00:27.177Z,47.88
2022-10-21T04:02:56.863Z,52.38
2022-10-21T04:05:24.017Z,48.00
2022-10-21T04:07:53.135Z,55.15
2022-10-21T04:10:21.263Z,54.22
2022-10-21T04:12:48.549Z,52.90
2022-10-21T04:15:15.974Z,56.60
2022-10-21T04:17:46.880Z,58.45
2022-10-21T04:20:14.420Z,55.22
2022-10-21T04:22:41.770Z,61.55
2022-10-21T04:25:09.344Z,54.83
2022-10-21T04:27:36.537Z,55.38
2022-10-21T04:30:04.555Z,50.78
2022-10-21T04:32:31.678Z,52.45
2022-10-21T04:34:58.801Z,51.97
2022-10-21T04:37:26.009Z,51.00
2022-10-21T04:39:53.164Z,56.25
2022-10-21T04:42:20.374Z,53.83
2022-10-21T04:44:47.633Z,51.10
2022-10-21T04:47:15.109Z,55.45
2022-10-21T04:49:42.320Z,50.65
2022-10-21T04:52:09.572Z,50.80
2022-10-21T04:54:36.818Z,48.95
2022-10-21T04:57:04.002Z,44.88
2022-10-21T04:59:31.589Z,46.60
2022-10-21T05:01:58.837Z,50.05
2022-10-21T05:04:26.165Z,48.15
2022-10-21T05:06:53.289Z,45.58
2022-10-21T05:09:20.688Z,42.65
2022-10-21T05:11:47.923Z,45.33
2022-10-21T05:14:17.627Z,48.08
2022-10-21T05:16:47.210Z,47.28
2022-10-21T05:19:14.452Z,46.38
2022-10-21T05:21:41.730Z,45.95
2022-10-21T05:24:09.212Z,54.35
2022-10-21T05:26:36.352Z,51.70
2022-10-21T05:29:03.512Z,46.30
2022-10-21T05:31:30.763Z,50.33
2022-10-21T05:33:58.113Z,47.67
2022-10-21T05:36:25.644Z,46.85
2022-10-21T05:38:53.740Z,51.58
2022-10-21T05:41:21.117Z,48.65
2022-10-21T05:43:48.367Z,51.70
2022-10-21T05:46:15.657Z,49.72
2022-10-21T05:48:42.877Z,46.97
2022-10-21T05:51:10.051Z,50.45
2022-10-21T05:53:37.350Z,51.38
2022-10-21T05:56:08.075Z,47.72
2022-10-21T05:58:36.228Z,50.88
2022-10-21T06:01:03.862Z,48.17
2022-10-21T06:03:33.543Z,49.42
2022-10-21T06:06:04.997Z,50.25
2022-10-21T06:08:35.642Z,50.38
2022-10-21T06:11:14.324Z,51.88
2022-10-21T06:13:42.012Z,52.13
2022-10-21T06:16:11.847Z,54.33
2022-10-21T06:18:41.114Z,50.35
2022-10-21T06:21:09.932Z,47.75
2022-10-21T06:23:37.505Z,53.28
2022-10-21T06:26:13.109Z,52.78
2022-10-21T06:31:14.500Z,58.20
2022-10-21T06:33:42.117Z,55.05
2022-10-21T06:36:10.041Z,49.97
2022-10-21T06:38:38.217Z,55.65
2022-10-21T06:41:13.152Z,52.50
2022-10-21T06:46:15.510Z,56.08
2022-10-21T06:48:43.328Z,56.10
2022-10-21T06:51:19.692Z,60.47
2022-10-21T06:53:52.008Z,52.22
2022-10-21T06:56:20.321Z,60.28
2022-10-21T06:58:49.655Z,54.75
2022-10-21T07:01:34.974Z,61.22
2022-10-21T07:04:10.295Z,56.08
2022-10-21T07:06:37.957Z,57.75
2022-10-21T07:09:07.960Z,52.78
2022-10-21T07:11:35.919Z,61.63
2022-10-21T07:14:03.266Z,55.58
2022-10-21T07:16:35.101Z,55.08
2022-10-21T07:19:03.657Z,58.80
2022-10-21T07:21:32.005Z,55.38
2022-10-21T07:24:00.724Z,68.72
2022-10-21T07:26:32.267Z,54.30
2022-10-21T07:29:00.931Z,54.92
2022-10-21T07:31:32.852Z,60.10
2022-10-21T07:34:01.814Z,62.35
2022-10-21T07:36:34.050Z,57.55
2022-10-21T07:39:08.829Z,61.35
2022-10-21T07:41:44.407Z,63.75
2022-10-21T07:46:44.270Z,66.35
2022-10-21T07:49:13.205Z,63.85
2022-10-21T07:51:41.301Z,63.30
2022-10-21T07:54:08.942Z,64.90
2022-10-21T07:56:42.120Z,59.60
2022-10-21T07:59:13.187Z,52.45
2022-10-21T08:01:47.303Z,59.50
2022-10-21T08:04:21.867Z,64.65
2022-10-21T08:06:49.650Z,62.27
2022-10-21T08:09:17.687Z,61.83
2022-10-21T08:11:45.371Z,57.55
2022-10-21T08:14:13.459Z,62.95
2022-10-21T08:16:41.637Z,56.90
2022-10-21T08:19:17.557Z,56.85
2022-10-21T08:21:44.709Z,64.78
2022-10-21T08:24:11.993Z,61.30
2022-10-21T08:26:39.224Z,53.17
2022-10-21T08:29:06.617Z,55.00
2022-10-21T08:31:33.854Z,55.90
2022-10-21T08:34:01.221Z,55.65
2022-10-21T08:36:28.423Z,50.38
2022-10-21T08:38:55.740Z,55.08
2022-10-21T08:41:28.895Z,56.33
2022-10-21T08:44:26.105Z,55.90
2022-10-21T08:47:25.113Z,47.97
2022-10-21T08:50:06.208Z,46.83
2022-10-21T08:53:00.469Z,49.67
2022-10-21T08:55:41.611Z,48.60
2022-10-21T08:58:22.254Z,49.75
2022-10-21T09:01:14.944Z,46.42
2022-10-21T09:03:48.339Z,50.85
2022-10-21T09:06:34.541Z,53.85
2022-10-21T09:09:10.531Z,53.67
2022-10-21T09:12:22.798Z,49.28
2022-10-21T09:15:10.426Z,50.88
2022-10-21T09:17:42.006Z,49.60
2022-10-21T09:20:34.301Z,40.85
2022-10-21T09:23:53.291Z,47.22
2022-10-21T09:26:37.380Z,42.33
2022-10-21T09:29:41.244Z,43.15
2022-10-21T09:32:28.085Z,40.60
2022-10-21T09:35:35.250Z,39.90
2022-10-21T09:38:32.633Z,40.70
2022-10-21T09:41:03.374Z,35.53
2022-10-21T09:43:31.414Z,38.22
2022-10-21T09:45:59.035Z,44.08
2022-10-21T09:49:16.343Z,40.90
2022-10-21T09:51:38.987Z,35.50
2022-10-21T09:54:22.991Z,38.42
2022-10-21T09:57:13.012Z,33.65
2022-10-21T09:59:58.720Z,33.22
2022-10-21T10:02:36.743Z,32.55
2022-10-21T10:05:47.884Z,29.98
2022-10-21T10:08:29.186Z,30.88
2022-10-21T10:11:11.689Z,37.30
2022-10-21T10:13:50.436Z,32.53
2022-10-21T10:16:29.793Z,27.27
2022-10-21T10:19:20.458Z,33.50
2022-10-21T10:22:10.300Z,30.98
2022-10-21T10:24:40.684Z,27.65
2022-10-21T10:27:26.619Z,36.33
2022-10-21T10:29:58.637Z,31.40
2022-10-21T10:32:32.545Z,30.65
2022-10-21T10:35:04.993Z,30.80
2022-10-21T10:37:36.957Z,28.95
2022-10-21T10:40:09.199Z,26.73
2022-10-21T10:42:44.770Z,28.95
2022-10-21T10:48:03.175Z,25.92
2022-10-21T10:50:49.257Z,27.23
2022-10-21T10:53:37.809Z,24.48
2022-10-21T10:56:39.985Z,30.40
2022-10-21T10:59:34.154Z,22.95
2022-10-21T11:02:10.116Z,24.75
2022-10-21T11:05:28.662Z,26.33
2022-10-21T11:08:04.681Z,23.80
2022-10-21T11:10:47.697Z,22.55
2022-10-21T11:13:19.970Z,22.17
2022-10-21T11:16:50.464Z,22.80
2022-10-21T11:19:57.206Z,22.77
2022-10-21T11:23:27.850Z,24.80
2022-10-21T11:26:25.465Z,25.38
2022-10-21T11:29:23.629Z,21.33
2022-10-21T11:32:21.597Z,25.95
2022-10-21T11:35:48.288Z,26.25
2022-10-21T11:38:48.553Z,20.90
2022-10-21T11:41:45.603Z,19.20
2022-10-21T11:44:39.762Z,21.65
2022-10-21T11:47:44.537Z,21.58
2022-10-21T11:50:34.781Z,22.80
2022-10-21T11:53:46.102Z,23.92
2022-10-21T11:56:38.429Z,20.70
2022-10-21T12:00:10.762Z,20.05
2022-10-21T12:03:11.319Z,22.40
2022-10-21T12:05:55.550Z,24.00
2022-10-21T12:08:41.204Z,22.45
2022-10-21T12:11:20.849Z,23.42
2022-10-21T12:14:36.354Z,24.92
2022-10-21T12:17:12.979Z,22.65
2022-10-21T12:19:41.050Z,26.05
2022-10-21T12:22:11.032Z,25.50
2022-10-21T12:24:58.393Z,22.85
2022-10-21T12:28:34.612Z,22.88
2022-10-21T12:31:26.913Z,28.58
2022-10-21T12:33:54.703Z,23.48
2022-10-21T12:36:25.581Z,22.08
2022-10-21T12:38:55.293Z,27.17
2022-10-21T12:41:36.701Z,22.35
2022-10-21T12:44:05.484Z,23.67
2022-10-21T12:47:01.906Z,26.38
2022-10-21T12:49:35.886Z,28.13
2022-10-21T12:52:02.873Z,22.98
2022-10-21T12:54:41.414Z,21.73
2022-10-21T12:57:23.847Z,21.83
2022-10-21T12:59:51.074Z,25.10
2022-10-21T13:02:28.283Z,25.20
2022-10-21T13:04:57.437Z,24.80
2022-10-21T13:07:31.665Z,22.75
2022-10-21T13:09:58.624Z,25.60
2022-10-21T13:12:29.260Z,23.15
2022-10-21T13:15:21.949Z,21.98
2022-10-21T13:17:57.709Z,24.25
2022-10-21T13:20:24.720Z,21.95
2022-10-21T13:23:03.576Z,22.65
2022-10-21T13:25:36.160Z,24.15
2022-10-21T13:28:13.554Z,23.17
2022-10-21T13:30:59.921Z,22.05
2022-10-21T13:33:38.515Z,19.20
2022-10-21T13:36:14.238Z,24.48
2022-10-21T13:41:29.349Z,21.10
2022-10-21T13:44:07.346Z,22.95
2022-10-21T13:46:43.558Z,21.05
2022-10-21T13:49:51.364Z,23.45
2022-10-21T13:52:18.791Z,24.83
2022-10-21T13:54:46.286Z,23.52
2022-10-21T13:57:19.592Z,19.85
2022-10-21T13:59:59.791Z,23.23
2022-10-21T14:02:27.255Z,24.00
2022-10-21T14:04:54.460Z,28.30
2022-10-21T14:07:21.929Z,25.17
2022-10-21T14:09:58.663Z,23.90
2022-10-21T14:12:43.918Z,20.85
2022-10-21T14:15:24.350Z,27.63
2022-10-21T14:17:58.026Z,25.05
2022-10-21T14:20:38.116Z,23.10
2022-10-21T14:23:16.053Z,25.38
2022-10-21T14:25:43.554Z,24.33
2022-10-21T14:28:13.880Z,25.42
2022-10-21T14:30:42.643Z,28.42
2022-10-21T14:33:17.872Z,25.33
2022-10-21T14:35:45.051Z,28.70
2022-10-21T14:38:38.841Z,27.25
2022-10-21T14:41:15.229Z,25.30
2022-10-21T14:43:45.772Z,27.50
2022-10-21T14:46:13.577Z,26.92
2022-10-21T14:48:59.753Z,26.88
2022-10-21T14:51:27.768Z,32.05
2022-10-21T14:53:59.416Z,27.52
2022-10-21T14:56:40.365Z,26.60
2022-10-21T14:59:25.583Z,27.52
2022-10-21T15:01:53.325Z,26.30
2022-10-21T15:04:51.349Z,28.50
2022-10-21T15:07:39.139Z,30.20
2022-10-21T15:10:07.164Z,36.40
2022-10-21T15:12:47.112Z,27.63
2022-10-21T15:15:54.272Z,26.15
2022-10-21T15:18:36.497Z,32.85
2022-10-21T15:21:05.648Z,24.77
2022-10-21T15:23:37.305Z,29.73
2022-10-21T15:26:21.359Z,28.05
2022-10-21T15:28:49.884Z,28.08
2022-10-21T15:31:29.153Z,26.25
2022-10-21T15:33:58.617Z,27.98
2022-10-21T15:36:25.865Z,27.35
2022-10-21T15:38:54.675Z,27.95
2022-10-21T15:41:25.450Z,31.27
2022-10-21T15:44:16.459Z,37.30
2022-10-21T15:46:46.939Z,27.25
2022-10-21T15:49:24.736Z,26.55
2022-10-21T15:51:52.194Z,33.10
2022-10-21T15:54:20.851Z,30.60
2022-10-21T15:56:52.973Z,28.45
2022-10-21T15:59:25.584Z,31.67
2022-10-21T16:01:54.180Z,32.53
2022-10-21T16:04:22.625Z,29.13
2022-10-21T16:06:52.230Z,35.70
2022-10-21T16:09:29.359Z,33.95
2022-10-21T16:12:00.500Z,34.20
2022-10-21T16:14:30.740Z,35.15
2022-10-21T16:16:59.544Z,31.38
2022-10-21T16:19:28.031Z,28.23
2022-10-21T16:21:55.999Z,32.85
2022-10-21T16:24:23.461Z,32.63
2022-10-21T16:26:50.907Z,29.75
2022-10-21T16:29:25.288Z,33.05
2022-10-21T16:31:53.586Z,33.45
2022-10-21T16:34:20.867Z,34.25
2022-10-21T16:36:48.214Z,26.00
2022-10-21T16:39:24.214Z,31.63
2022-10-21T16:41:52.308Z,28.77
2022-10-21T16:44:19.751Z,28.45
2022-10-21T16:46:55.174Z,32.78
2022-10-21T16:49:28.062Z,29.60
2022-10-21T16:51:57.460Z,30.77
2022-10-21T16:54:24.737Z,28.48
2022-10-21T16:56:55.014Z,33.70
2022-10-21T16:59:23.481Z,28.60
2022-10-21T17:01:51.516Z,36.67
2022-10-21T17:04:18.909Z,35.90
2022-10-21T17:06:46.157Z,31.17
2022-10-21T17:09:13.445Z,31.92
2022-10-21T17:11:42.461Z,32.13
2022-10-21T17:14:20.281Z,32.40
2022-10-21T17:16:47.787Z,34.80
2022-10-21T17:19:15.781Z,30.27
2022-10-21T17:21:44.008Z,33.05
2022-10-21T17:24:18.159Z,32.67
2022-10-21T17:26:45.704Z,31.20
2022-10-21T17:29:13.145Z,32.72
2022-10-21T17:31:42.799Z,36.15
2022-10-21T17:34:28.253Z,36.35
2022-10-21T17:36:55.815Z,34.67
2022-10-21T17:39:24.083Z,34.83
2022-10-21T17:41:51.502Z,37.80
2022-10-21T17:44:19.678Z,34.53
2022-10-21T17:46:49.325Z,34.85
2022-10-21T17:49:16.560Z,35.53
2022-10-21T17:51:43.720Z,32.40
2022-10-21T17:54:11.165Z,34.90
2022-10-21T17:56:38.392Z,36.90
2022-10-21T17:59:05.556Z,35.97
2022-10-21T18:01:32.912Z,33.65
2022-10-21T18:04:00.309Z,34.92
2022-10-21T18:06:28.057Z,35.33
2022-10-21T18:08:58.452Z,35.17
2022-10-21T18:11:26.143Z,33.15
2022-10-21T18:13:55.223Z,35.10
2022-10-21T18:16:24.093Z,37.35
2022-10-21T18:18:56.082Z,37.08
2022-10-21T18:21:25.792Z,37.90
2022-10-21T18:23:54.327Z,36.60
2022-10-21T18:26:29.349Z,37.90
2022-10-21T18:29:01.177Z,37.47
2022-10-21T18:31:33.322Z,41.20
2022-10-21T18:34:03.924Z,35.65
2022-10-21T18:36:32.551Z,34.53
2022-10-21T18:39:01.286Z,34.72
2022-10-21T18:41:28.578Z,37.00
2022-10-21T18:44:07.976Z,37.83
2022-10-21T18:46:39.956Z,39.70
2022-10-21T18:49:13.496Z,41.97
2022-10-21T18:51:41.403Z,36.08
2022-10-21T18:54:09.686Z,49.70
2022-10-21T18:56:37.100Z,40.95
2022-10-21T18:59:05.739Z,40.13
2022-10-21T19:01:33.034Z,41.70
2022-10-21T19:04:00.619Z,41.20
2022-10-21T19:06:46.208Z,37.00
2022-10-21T19:09:18.939Z,40.92
2022-10-21T19:11:47.568Z,39.88
2022-10-21T19:14:16.557Z,37.92
2022-10-21T19:16:46.825Z,41.25
2022-10-21T19:19:16.636Z,39.97
2022-10-21T19:21:51.684Z,38.40
2022-10-21T19:24:19.027Z,42.85
2022-10-21T19:26:58.144Z,38.63
2022-10-21T19:29:27.837Z,40.13
2022-10-21T19:31:56.834Z,37.85
2022-10-21T19:34:28.030Z,38.00
2022-10-21T19:36:55.375Z,40.10
2022-10-21T19:39:22.615Z,40.65
2022-10-21T19:41:49.896Z,41.28
2022-10-21T19:44:17.781Z,40.50
2022-10-21T19:46:45.422Z,41.00
2022-10-21T19:49:15.009Z,39.70
2022-10-21T19:51:42.904Z,41.65
2022-10-21T19:54:13.177Z,40.67
2022-10-21T19:56:41.179Z,41.38
2022-10-21T19:59:09.798Z,41.38
2022-10-21T20:01:40.258Z,39.90
2022-10-21T20:04:07.545Z,43.40
2022-10-21T20:06:37.681Z,38.10
2022-10-21T20:09:15.148Z,39.92
2022-10-21T20:11:43.002Z,37.13
2022-10-21T20:14:15.061Z,40.45
2022-10-21T20:16:43.514Z,41.15
2022-10-21T20:19:12.912Z,36.00
2022-10-21T20:21:43.603Z,41.40
2022-10-21T20:24:17.879Z,38.22
2022-10-21T20:26:49.959Z,36.22
2022-10-21T20:29:18.941Z,42.03
2022-10-21T20:31:48.530Z,36.00
2022-10-21T20:34:16.722Z,36.85
2022-10-21T20:36:44.890Z,40.65
2022-10-21T20:39:13.363Z,49.03
2022-10-21T20:41:40.720Z,37.05
2022-10-21T20:44:16.242Z,36.75
2022-10-21T20:49:13.045Z,37.65
2022-10-21T20:51:44.283Z,35.75
2022-10-21T20:54:20.213Z,33.67
2022-10-21T20:56:47.467Z,38.53
2022-10-21T20:59:16.284Z,35.25
2022-10-21T21:01:46.798Z,33.65
2022-10-21T21:04:17.793Z,36.22
2022-10-21T21:06:50.156Z,38.60
2022-10-21T21:12:08.047Z,31.40
2022-10-21T21:14:35.280Z,34.45
2022-10-21T21:17:02.610Z,36.38
2022-10-21T21:19:29.867Z,32.42
2022-10-21T21:21:57.419Z,33.08
2022-10-21T21:24:25.816Z,34.00
2022-10-21T21:26:53.005Z,35.20
2022-10-21T21:29:20.220Z,31.85
2022-10-21T21:31:47.419Z,31.13
2022-10-21T21:34:14.939Z,34.58
2022-10-21T21:36:42.105Z,32.85
2022-10-21T21:39:10.995Z,32.40
2022-10-21T21:41:38.460Z,32.67
2022-10-21T21:44:06.212Z,33.33
2022-10-21T21:46:33.700Z,35.13
2022-10-21T21:49:06.113Z,31.30
2022-10-21T21:51:36.581Z,31.80
2022-10-21T21:54:07.579Z,29.70
2022-10-21T21:56:35.577Z,31.45
2022-10-21T21:59:02.976Z,29.92
2022-10-21T22:01:30.401Z,28.90
2022-10-21T22:03:58.501Z,26.30
2022-10-21T22:06:32.218Z,30.80
2022-10-21T22:09:01.462Z,29.38
2022-10-21T22:11:32.601Z,31.88
2022-10-21T22:14:00.360Z,27.60
2022-10-21T22:16:30.158Z,30.52
2022-10-21T22:19:00.624Z,27.80
2022-10-21T22:21:30.226Z,29.05
2022-10-21T22:23:57.785Z,27.90
2022-10-21T22:26:26.828Z,30.30
2022-10-21T22:28:54.682Z,31.45
2022-10-21T22:31:27.343Z,28.85
2022-10-21T22:34:00.823Z,24.05
2022-10-21T22:36:28.783Z,27.25
2022-10-21T22:38:56.080Z,24.10
2022-10-21T22:41:23.333Z,27.83
2022-10-21T22:43:50.509Z,27.50
2022-10-21T22:46:34.602Z,28.70
2022-10-21T22:49:05.835Z,25.75
2022-10-21T22:51:34.140Z,32.22
2022-10-21T22:54:01.692Z,29.98
2022-10-21T22:56:28.976Z,25.67
2022-10-21T22:58:57.463Z,26.70
2022-10-21T23:01:30.120Z,26.58
2022-10-21T23:04:04.050Z,25.08
2022-10-21T23:06:34.428Z,29.20
2022-10-21T23:09:04.247Z,24.70
2022-10-21T23:11:31.789Z,24.90
2022-10-21T23:14:03.452Z,22.98
2022-10-21T23:16:37.057Z,27.83
2022-10-21T23:19:07.956Z,27.50
2022-10-21T23:21:36.831Z,22.88
2022-10-21T23:24:05.467Z,30.80
2022-10-21T23:26:32.917Z,24.83
2022-10-21T23:29:00.193Z,22.98
2022-10-21T23:31:27.512Z,32.75
2022-10-21T23:33:54.737Z,26.20
2022-10-21T23:36:22.025Z,27.33
2022-10-21T23:38:49.417Z,30.52
2022-10-21T23:41:16.670Z,30.50
2022-10-21T23:43:43.998Z,25.25
2022-10-21T23:46:11.283Z,24.88
2022-10-21T23:48:38.601Z,26.00
2022-10-21T23:51:06.221Z,27.13
2022-10-21T23:53:33.598Z,23.13
2022-10-21T23:56:00.849Z,26.75
2022-10-21T23:58:28.171Z,22.48
